Arnott, WI

10:49 PM CDT on August 20, 2014 (GMT -0500)
Wally the Weather Station | Change Station
CLOSE
Current Station
Personal Weather Station
Location: Stevens Point, WI
Elevation: 1095 ft
Nearby Weather Stations

Elev 1095 ft 44.50 °N, 89.52 °W | Updated 2 seconds ago

Clear
Clear
65.0 °F
Feels Like 65.0 °F
N
0.0
Wind Variable Wind from North
Gusts 0.0 mph

Today
High -- | Low -- °F
--% Chance of Precip.
Yesterday
High -- | Low -- °F
Precip. -- in
6:06 AM 7:55 PM
Waning Crescent, 17% visible
Pressure 29.96 in
Visibility 10.0 miles
Clouds Clear
Dew Point 60 °F
Humidity 84%
Rainfall 0.00 in
Snow Depth Not available.
UV 0 out of 12
Pollen 9.30 out of 12
Air Quality Not available.
Flu Activity Not available.
METAR KSTE 210335Z AUTO 00000KT 10SM CLR 16/15 A2996 RMK AO2 T01590150

More Conditions Fewer Conditions

Pressure 29.96 in
Visibility 10.0 miles
Clouds Clear
Dew Point 60 °F
Humidity 84%
Rainfall 0.00 in
Snow Depth Not available.
UV 0 out of 12
Pollen 9.30 out of 12
Air Quality Not available.
Flu Activity Not available.
METAR KSTE 210335Z AUTO 00000KT 10SM CLR 16/15 A2996 RMK AO2 T01590150

More Conditions Fewer Conditions

10-Day Weather Forecast

Almanac

Astronomy

Aug. 20, 2014 Rise Set
Actual Time 6:06 AM CDT 7:55 PM CDT
Civil Twilight 5:35 AM CDT 8:26 PM CDT
Nautical Twilight 4:57 AM CDT 9:04 PM CDT
Astronomical Twilight 4:16 AM CDT 9:45 PM CDT
Moon 1:42 AM CDT (8/20) 4:44 PM CDT (8/20)
Length of Visible Light 14h 50m
Length of Day
13h 48m
Tomorrow will be 2m 51s shorter.
Waning Crescent, 17% of the Moon is Illuminated
Today
Waning Crescent
Aug 25
New
Sep 2
First Quarter
Sep 8
Full
Sep 15
Last Quarter

Today's Extremes

State Highs State Lows

Community

WunderPhotos

Upload Photos

1,745,851 photos uploaded!

Nearby

Snow Depth

Station Depth Elevation
No new snow has been reported.

Earthquake Activity

City Distance Mag. Time & Date
No recent earthquake activity has been reported nearby.
Minimum magnitude displayed is 2.5.

Coastal Water Temperatures

Place Temperature
No Stations Reporting

Nearby Weather Stations